Time;durP1;ratioP1;P1;durP2;ratioP2;P2;SDS_P1;SDS_P2;PMS_P1;PMS_P2;Temp;Humidity;BMP_temperature;BMP_pressure;BME280_temperature;BME280_humidity;BME280_pressure;Samples;Min_cycle;Max_cycle;Signal;HPM_P1;HPM_P2
2023/03/20 00:00:32;;;;;;;1.50;1.40;;;12.50;99.90;;;;;;7392648;19;20560;-71
2023/03/20 00:02:58;;;;;;;2.60;1.67;;;12.60;99.90;;;;;;7395989;19;20130;-71
2023/03/20 00:05:25;;;;;;;1.63;1.50;;;12.60;99.90;;;;;;7391620;19;20157;-73
2023/03/20 00:07:52;;;;;;;1.92;1.73;;;12.70;99.90;;;;;;7395573;19;20562;-72
2023/03/20 00:10:18;;;;;;;4.20;1.90;;;12.60;99.90;;;;;;7393262;19;20141;-72
2023/03/20 00:12:47;;;;;;;2.33;1.80;;;12.60;99.90;;;;;;7396379;19;20201;-72
2023/03/20 00:15:36;;;;;;;2.40;2.00;;;12.60;99.90;;;;;;7393679;19;20154;-72
2023/03/20 00:18:03;;;;;;;3.90;1.65;;;12.40;99.90;;;;;;7393348;19;20285;-71
2023/03/20 00:20:29;;;;;;;2.45;2.05;;;12.50;99.90;;;;;;7394528;19;20607;-72
2023/03/20 00:22:55;;;;;;;2.53;2.20;;;12.50;99.90;;;;;;7393390;19;20158;-71
2023/03/20 00:25:25;;;;;;;2.93;2.30;;;12.50;99.90;;;;;;7393554;19;20510;-72
2023/03/20 00:27:51;;;;;;;2.35;2.00;;;12.50;99.90;;;;;;7393111;19;20209;-72
2023/03/20 00:30:35;;;;;;;3.88;2.35;;;12.50;99.90;;;;;;7392406;19;20194;-71
2023/03/20 00:33:01;;;;;;;3.50;2.10;;;12.50;99.90;;;;;;7393926;19;20159;-71
2023/03/20 00:35:29;;;;;;;2.60;2.40;;;12.50;99.90;;;;;;7392903;19;20154;-72
2023/03/20 00:37:57;;;;;;;2.63;2.30;;;12.50;99.90;;;;;;7394273;19;20142;-72
2023/03/20 00:40:29;;;;;;;3.60;2.33;;;12.50;99.90;;;;;;7392177;19;20234;-72
2023/03/20 00:42:59;;;;;;;2.72;2.33;;;12.40;99.90;;;;;;7394062;19;20170;-71
2023/03/20 00:45:26;;;;;;;2.57;1.97;;;12.50;99.90;;;;;;7392169;19;20164;-71
2023/03/20 00:47:52;;;;;;;2.60;1.70;;;12.50;99.90;;;;;;7394804;19;20127;-71
2023/03/20 00:50:22;;;;;;;3.60;1.60;;;12.50;99.90;;;;;;7392669;19;20591;-72
2023/03/20 00:52:49;;;;;;;1.98;1.77;;;12.30;99.90;;;;;;7394867;19;20639;-72
2023/03/20 00:55:17;;;;;;;3.90;1.93;;;12.30;99.90;;;;;;7392423;19;20142;-71
2023/03/20 00:57:52;;;;;;;3.22;1.60;;;12.30;99.90;;;;;;7393180;19;20581;-71
2023/03/20 01:00:37;;;;;;;1.53;1.43;;;12.40;99.90;;;;;;7390804;19;20150;-72
2023/03/20 01:03:30;;;;;;;2.63;1.60;;;12.40;99.90;;;;;;7395117;19;20131;-71
2023/03/20 01:05:56;;;;;;;1.83;1.50;;;12.40;99.90;;;;;;7392860;19;20159;-71
2023/03/20 01:08:24;;;;;;;1.97;1.30;;;12.40;99.90;;;;;;7389905;19;20932;-70
2023/03/20 01:10:54;;;;;;;2.50;1.70;;;12.60;99.90;;;;;;7392934;19;20258;-71
2023/03/20 01:13:25;;;;;;;2.70;1.55;;;12.50;99.90;;;;;;7392548;19;20135;-71
2023/03/20 01:15:52;;;;;;;1.43;1.33;;;12.30;99.90;;;;;;7394941;19;20209;-71
2023/03/20 01:18:20;;;;;;;1.90;1.50;;;12.20;99.90;;;;;;7391173;19;20431;-71
2023/03/20 01:20:49;;;;;;;3.57;1.57;;;12.30;99.90;;;;;;7391838;19;20131;-72
2023/03/20 01:23:15;;;;;;;3.33;1.40;;;12.10;99.90;;;;;;7391709;19;20134;-71
2023/03/20 01:25:41;;;;;;;3.58;1.50;;;12.00;99.90;;;;;;7393589;19;20135;-71
2023/03/20 01:28:17;;;;;;;1.60;1.17;;;12.10;99.90;;;;;;7390662;19;20134;-72
2023/03/20 01:30:43;;;;;;;1.50;1.40;;;12.20;99.90;;;;;;7391466;19;20685;-72
2023/03/20 01:33:30;;;;;;;1.98;1.50;;;12.30;99.90;;;;;;7391156;19;20149;-72
2023/03/20 01:35:56;;;;;;;1.50;1.33;;;12.30;99.90;;;;;;7391952;19;20274;-72
2023/03/20 01:38:26;;;;;;;1.85;1.40;;;12.30;99.90;;;;;;7391256;19;20150;-73
2023/03/20 01:41:12;;;;;;;1.55;1.25;;;12.40;99.90;;;;;;7391828;19;20226;-71
2023/03/20 01:43:38;;;;;;;1.50;1.40;;;11.80;99.90;;;;;;7390559;19;20152;-71
2023/03/20 01:46:10;;;;;;;3.30;1.40;;;11.90;99.90;;;;;;7391106;19;20173;-71
2023/03/20 01:48:51;;;;;;;1.90;1.37;;;12.10;99.90;;;;;;7390208;19;20612;-71
2023/03/20 01:51:23;;;;;;;1.67;1.50;;;12.20;99.90;;;;;;7390189;19;20554;-70
2023/03/20 01:54:15;;;;;;;1.42;1.27;;;12.10;99.90;;;;;;7391760;19;20130;-71
2023/03/20 01:56:46;;;;;;;3.28;1.50;;;12.10;99.90;;;;;;7392083;19;20145;-72
2023/03/20 01:59:17;;;;;;;1.75;1.23;;;12.20;99.90;;;;;;7389727;19;20131;-71
2023/03/20 02:01:43;;;;;;;1.83;1.20;;;12.30;99.90;;;;;;7390306;19;20131;-71
2023/03/20 02:04:13;;;;;;;1.55;1.40;;;12.30;99.90;;;;;;7389077;19;20154;-71
2023/03/20 02:06:40;;;;;;;1.60;1.33;;;12.30;99.90;;;;;;7391163;19;20138;-72
2023/03/20 02:09:07;;;;;;;1.40;1.30;;;12.30;99.90;;;;;;7391325;19;20142;-71
2023/03/20 02:11:33;;;;;;;2.37;1.47;;;12.40;99.90;;;;;;7389662;19;20179;-72
2023/03/20 02:14:00;;;;;;;1.65;1.42;;;12.30;99.90;;;;;;7389652;19;20139;-72
2023/03/20 02:16:26;;;;;;;1.40;1.30;;;12.30;99.90;;;;;;7389472;19;20143;-71
2023/03/20 02:18:55;;;;;;;1.67;1.23;;;12.30;99.90;;;;;;7390875;19;20131;-71
2023/03/20 02:21:47;;;;;;;2.30;1.33;;;12.40;99.90;;;;;;7388193;19;20138;-72
2023/03/20 02:24:31;;;;;;;2.13;1.10;;;12.20;99.90;;;;;;7380400;19;20150;-71
2023/03/20 02:27:15;;;;;;;1.23;1.00;;;12.30;99.90;;;;;;7388432;19;20157;-72
2023/03/20 02:30:00;;;;;;;1.10;1.00;;;12.30;99.90;;;;;;7391273;19;20146;-72
2023/03/20 02:32:55;;;;;;;3.93;1.20;;;12.30;99.90;;;;;;7388773;19;20631;-71
2023/03/20 02:35:39;;;;;;;0.80;0.80;;;12.30;99.90;;;;;;7388960;19;20496;-71
2023/03/20 02:38:56;;;;;;;1.30;1.00;;;12.30;99.90;;;;;;7390966;19;20146;-71
2023/03/20 02:41:43;;;;;;;1.10;0.90;;;12.30;99.90;;;;;;7386306;19;20135;-71
2023/03/20 02:44:18;;;;;;;1.43;1.00;;;12.30;99.90;;;;;;7387150;19;20524;-72
2023/03/20 02:47:04;;;;;;;1.23;1.00;;;12.10;99.90;;;;;;7388523;19;20170;-72
2023/03/20 02:49:45;;;;;;;0.90;0.80;;;12.20;99.90;;;;;;7388730;19;20162;-71
2023/03/20 02:52:20;;;;;;;0.80;0.80;;;12.10;99.90;;;;;;7385065;19;20953;-70
2023/03/20 02:55:25;;;;;;;1.07;0.73;;;12.00;99.90;;;;;;7386034;19;20184;-71
2023/03/20 02:58:00;;;;;;;1.13;0.70;;;12.00;99.90;;;;;;7388301;19;20615;-70
2023/03/20 03:00:28;;;;;;;1.13;0.67;;;12.00;99.90;;;;;;7388611;19;20157;-71
2023/03/20 03:03:16;;;;;;;0.70;0.63;;;12.10;99.90;;;;;;7388885;19;20146;-72
2023/03/20 03:05:44;;;;;;;1.07;0.97;;;12.10;99.90;;;;;;7388195;19;20218;-72
2023/03/20 03:08:13;;;;;;;0.88;0.60;;;12.00;99.90;;;;;;7389739;19;20135;-72
2023/03/20 03:10:45;;;;;;;1.67;0.80;;;12.00;99.90;;;;;;7389237;19;20137;-71
2023/03/20 03:13:15;;;;;;;1.70;0.73;;;12.20;99.90;;;;;;7387429;19;20146;-71
2023/03/20 03:15:46;;;;;;;0.80;0.60;;;12.10;99.90;;;;;;7385746;19;20150;-72
2023/03/20 03:18:19;;;;;;;0.57;0.57;;;12.10;99.90;;;;;;7386789;19;20150;-71
2023/03/20 03:20:47;;;;;;;3.35;0.60;;;12.10;99.90;;;;;;7388685;19;20157;-70
2023/03/20 03:23:27;;;;;;;2.85;0.80;;;12.10;99.90;;;;;;7385411;19;20210;-71
2023/03/20 03:25:56;;;;;;;0.50;0.50;;;12.10;99.90;;;;;;7389756;19;20135;-72
2023/03/20 03:28:42;;;;;;;2.60;0.60;;;12.10;99.90;;;;;;7387359;19;20134;-72
2023/03/20 03:31:14;;;;;;;1.80;0.60;;;12.20;99.90;;;;;;7385434;19;20215;-72
2023/03/20 03:33:44;;;;;;;1.88;0.70;;;12.30;99.90;;;;;;7386251;19;20142;-72
2023/03/20 03:36:12;;;;;;;2.40;0.70;;;12.30;99.90;;;;;;7388544;19;20238;-72
2023/03/20 03:38:44;;;;;;;0.93;0.60;;;12.20;99.90;;;;;;7389110;19;20269;-72
2023/03/20 03:41:44;;;;;;;0.40;0.40;;;12.20;99.90;;;;;;7388919;19;20127;-72
2023/03/20 03:44:35;;;;;;;1.00;0.60;;;12.20;99.90;;;;;;7384248;19;20151;-72
2023/03/20 03:47:18;;;;;;;1.83;1.13;;;12.20;99.90;;;;;;7389822;19;20607;-72
2023/03/20 03:49:57;;;;;;;0.60;0.50;;;12.20;99.90;;;;;;7389044;19;20150;-71
2023/03/20 03:52:25;;;;;;;1.27;0.60;;;12.10;99.90;;;;;;7381526;19;20154;-71
2023/03/20 03:55:03;;;;;;;0.65;0.50;;;12.10;99.90;;;;;;7385567;19;20130;-71
2023/03/20 03:57:43;;;;;;;1.03;0.70;;;12.10;99.90;;;;;;7387502;19;20499;-71
2023/03/20 04:00:12;;;;;;;0.57;0.57;;;12.10;99.90;;;;;;7387339;19;20595;-69
2023/03/20 04:02:39;;;;;;;1.53;0.63;;;12.10;99.90;;;;;;7387037;19;20165;-71
2023/03/20 04:05:06;;;;;;;0.47;0.47;;;12.10;99.90;;;;;;7383458;19;20635;-72
2023/03/20 04:07:31;;;;;;;0.60;0.50;;;12.10;99.90;;;;;;7384745;19;20153;-71
2023/03/20 04:09:57;;;;;;;0.65;0.50;;;12.10;99.90;;;;;;7387005;19;20135;-70
2023/03/20 04:12:39;;;;;;;0.57;0.57;;;12.10;99.90;;;;;;7387992;19;20150;-72
2023/03/20 04:15:05;;;;;;;1.07;0.50;;;12.10;99.90;;;;;;7385308;19;20630;-71
2023/03/20 04:17:31;;;;;;;0.63;0.50;;;12.10;99.90;;;;;;7386539;19;20233;-71
2023/03/20 04:19:57;;;;;;;1.03;0.60;;;12.00;99.90;;;;;;7385401;19;20155;-70
2023/03/20 04:22:23;;;;;;;0.50;0.50;;;12.00;99.90;;;;;;7386063;19;20134;-71
2023/03/20 04:24:50;;;;;;;0.88;0.52;;;12.10;99.90;;;;;;7386148;19;20154;-71
2023/03/20 04:27:16;;;;;;;2.00;0.87;;;12.10;99.90;;;;;;7385243;19;20135;-72
2023/03/20 04:29:43;;;;;;;0.87;0.60;;;12.10;99.90;;;;;;7385946;19;20138;-72
2023/03/20 04:32:09;;;;;;;0.70;0.60;;;12.10;99.90;;;;;;7386283;19;20135;-70
2023/03/20 04:34:34;;;;;;;0.73;0.63;;;12.10;99.90;;;;;;7387056;19;20149;-73
2023/03/20 04:37:00;;;;;;;0.63;0.60;;;12.10;99.90;;;;;;7385437;19;20539;-72
2023/03/20 04:39:27;;;;;;;1.80;0.70;;;12.00;99.90;;;;;;7385922;19;20135;-72
2023/03/20 04:41:52;;;;;;;0.50;0.50;;;12.00;99.90;;;;;;7386181;19;20139;-71
2023/03/20 04:44:18;;;;;;;2.88;0.70;;;12.00;99.90;;;;;;7391737;19;20139;-71
2023/03/20 04:46:44;;;;;;;0.80;0.73;;;12.00;99.90;;;;;;7392314;19;20231;-71
2023/03/20 04:49:10;;;;;;;1.17;0.83;;;12.00;99.90;;;;;;7392778;19;20154;-72
2023/03/20 04:51:36;;;;;;;0.80;0.65;;;12.00;99.90;;;;;;7391610;19;20147;-72
2023/03/20 04:54:03;;;;;;;1.23;0.67;;;12.00;99.90;;;;;;7390926;19;20562;-73
2023/03/20 04:56:28;;;;;;;1.50;0.70;;;12.00;99.90;;;;;;7391847;19;20142;-71
2023/03/20 04:58:54;;;;;;;0.70;0.70;;;12.00;99.90;;;;;;7393520;19;20158;-72
2023/03/20 05:01:20;;;;;;;0.90;0.60;;;12.00;99.90;;;;;;7393055;19;20631;-72
2023/03/20 05:03:46;;;;;;;0.82;0.60;;;12.00;99.90;;;;;;7392274;19;20559;-72
2023/03/20 05:06:11;;;;;;;0.90;0.60;;;12.00;99.90;;;;;;7392788;19;20127;-72
2023/03/20 05:08:37;;;;;;;5.00;0.67;;;12.10;99.90;;;;;;7390535;19;20127;-72
2023/03/20 05:11:03;;;;;;;0.80;0.70;;;12.00;99.90;;;;;;7394111;19;20134;-71
2023/03/20 05:13:29;;;;;;;0.87;0.50;;;12.10;99.90;;;;;;7390283;19;20154;-72
2023/03/20 05:15:55;;;;;;;0.80;0.60;;;12.00;99.90;;;;;;7392058;19;20178;-72
2023/03/20 05:18:21;;;;;;;0.70;0.50;;;12.00;99.90;;;;;;7390341;19;20151;-72
2023/03/20 05:20:49;;;;;;;3.13;0.80;;;12.00;99.90;;;;;;7393507;19;20143;-71
2023/03/20 05:23:15;;;;;;;0.90;0.70;;;12.00;99.90;;;;;;7390995;19;20594;-72
2023/03/20 05:25:40;;;;;;;1.13;0.80;;;12.00;99.90;;;;;;7390492;19;20142;-72
2023/03/20 05:28:06;;;;;;;0.70;0.60;;;12.00;99.90;;;;;;7392194;19;20141;-72
2023/03/20 05:30:32;;;;;;;0.55;0.50;;;12.00;99.90;;;;;;7388951;19;20142;-73
2023/03/20 05:32:58;;;;;;;0.50;0.50;;;12.00;99.90;;;;;;7390393;19;20482;-72
2023/03/20 05:35:23;;;;;;;0.98;0.60;;;12.00;99.90;;;;;;7386817;19;20239;-72
2023/03/20 05:37:49;;;;;;;1.58;0.70;;;11.90;99.90;;;;;;7391063;19;20222;-72
2023/03/20 05:40:17;;;;;;;1.85;0.52;;;12.00;99.90;;;;;;7390222;19;20198;-72
2023/03/20 05:42:44;;;;;;;1.27;0.70;;;12.00;99.90;;;;;;7392208;19;20205;-71
2023/03/20 05:45:10;;;;;;;0.50;0.50;;;12.00;99.90;;;;;;7390044;19;20150;-72
2023/03/20 05:47:36;;;;;;;0.90;0.70;;;12.00;99.90;;;;;;7393511;19;20139;-73
2023/03/20 05:50:02;;;;;;;2.23;0.77;;;12.00;99.90;;;;;;7391592;19;20157;-72
2023/03/20 05:52:28;;;;;;;1.07;0.70;;;12.00;99.90;;;;;;7389241;19;20165;-72
2023/03/20 05:54:54;;;;;;;3.40;0.70;;;12.00;99.90;;;;;;7387486;19;20115;-73
2023/03/20 05:57:21;;;;;;;1.80;0.80;;;12.00;99.90;;;;;;7390101;19;20142;-72
2023/03/20 05:59:46;;;;;;;1.10;0.70;;;12.10;99.90;;;;;;7392111;19;20142;-72
2023/03/20 06:02:13;;;;;;;2.47;0.70;;;12.10;99.90;;;;;;7388749;19;20142;-72
2023/03/20 06:04:39;;;;;;;1.02;0.70;;;12.10;99.90;;;;;;7388425;19;20185;-72
2023/03/20 06:07:05;;;;;;;1.20;0.87;;;12.10;99.90;;;;;;7388096;19;20507;-72
2023/03/20 06:09:31;;;;;;;2.37;0.80;;;12.10;99.90;;;;;;7389911;19;20162;-72
2023/03/20 06:11:57;;;;;;;3.23;1.33;;;12.10;99.90;;;;;;7392299;19;20130;-73
2023/03/20 06:14:23;;;;;;;2.63;1.90;;;12.10;99.90;;;;;;7390808;19;20498;-73
2023/03/20 06:16:49;;;;;;;3.78;2.45;;;12.10;99.90;;;;;;7390637;19;20230;-73
2023/03/20 06:19:15;;;;;;;1.40;1.00;;;12.10;99.90;;;;;;7387648;19;20165;-73
2023/03/20 06:21:41;;;;;;;1.53;0.93;;;12.10;99.90;;;;;;7387440;19;20159;-73
2023/03/20 06:24:06;;;;;;;1.10;1.00;;;12.20;99.90;;;;;;7387303;19;20150;-73
2023/03/20 06:26:32;;;;;;;2.53;0.90;;;12.20;99.90;;;;;;7389730;19;20198;-73
2023/03/20 06:28:58;;;;;;;0.80;0.70;;;12.20;99.90;;;;;;7387330;19;20158;-73
2023/03/20 06:31:24;;;;;;;1.40;0.87;;;12.10;99.90;;;;;;7387862;19;20154;-72
2023/03/20 06:33:51;;;;;;;1.03;0.80;;;12.10;99.90;;;;;;7385858;19;20130;-73
2023/03/20 06:36:17;;;;;;;2.27;1.03;;;12.20;99.90;;;;;;7389301;19;20141;-73
2023/03/20 06:38:42;;;;;;;1.60;0.80;;;12.20;99.90;;;;;;7387212;19;20154;-73
2023/03/20 06:41:08;;;;;;;1.13;0.90;;;12.20;99.90;;;;;;7387137;19;20158;-73
2023/03/20 06:43:34;;;;;;;3.10;0.93;;;12.20;99.90;;;;;;7386483;19;20576;-73
2023/03/20 06:46:00;;;;;;;2.15;0.90;;;12.30;99.90;;;;;;7387860;19;20155;-73
2023/03/20 06:48:25;;;;;;;0.90;0.70;;;12.20;99.90;;;;;;7385737;19;20202;-73
2023/03/20 06:50:51;;;;;;;0.90;0.90;;;12.40;99.90;;;;;;7387462;19;20181;-73
2023/03/20 06:53:18;;;;;;;1.83;0.90;;;12.40;99.90;;;;;;7385968;19;20147;-72
2023/03/20 06:55:48;;;;;;;0.80;0.75;;;12.50;99.90;;;;;;7386872;19;20146;-72
2023/03/20 06:58:14;;;;;;;4.07;1.00;;;12.50;99.90;;;;;;7382786;19;20225;-73
2023/03/20 07:00:41;;;;;;;1.55;0.98;;;12.50;99.90;;;;;;7386446;19;20483;-73
2023/03/20 07:03:07;;;;;;;3.77;2.63;;;12.50;99.90;;;;;;7386462;19;20150;-72
2023/03/20 07:05:33;;;;;;;5.77;1.60;;;12.50;99.90;;;;;;7385582;19;20504;-73
2023/03/20 07:07:59;;;;;;;3.47;1.20;;;12.60;99.90;;;;;;7382525;19;20145;-72
2023/03/20 07:10:26;;;;;;;6.13;3.60;;;12.80;99.90;;;;;;7388041;19;20135;-73
2023/03/20 07:12:51;;;;;;;4.10;2.38;;;12.80;99.90;;;;;;7386598;19;20134;-73
2023/03/20 07:15:18;;;;;;;2.33;0.95;;;13.20;99.90;;;;;;7385364;19;20141;-73
2023/03/20 07:17:43;;;;;;;3.83;0.90;;;12.90;99.90;;;;;;7385995;19;20170;-73
2023/03/20 07:20:10;;;;;;;1.85;1.30;;;13.00;99.90;;;;;;7385830;19;20706;-72
2023/03/20 07:22:36;;;;;;;2.92;1.23;;;13.10;99.90;;;;;;7387738;19;20142;-73
2023/03/20 07:25:02;;;;;;;1.38;1.05;;;13.00;99.90;;;;;;7387348;19;20454;-73
2023/03/20 07:27:28;;;;;;;2.22;0.90;;;13.00;99.90;;;;;;7385410;19;20773;-73
2023/03/20 07:30:04;;;;;;;2.20;1.00;;;13.00;99.90;;;;;;7386490;19;20178;-72
2023/03/20 07:32:29;;;;;;;1.17;1.08;;;12.80;99.90;;;;;;7382497;19;20154;-73
2023/03/20 07:34:55;;;;;;;1.65;0.90;;;12.80;99.90;;;;;;7385918;19;20144;-73
2023/03/20 07:37:21;;;;;;;1.98;1.00;;;12.80;99.90;;;;;;7387223;19;20140;-72
2023/03/20 07:39:51;;;;;;;2.38;0.90;;;12.70;99.90;;;;;;7387556;19;20146;-73
2023/03/20 07:42:17;;;;;;;1.40;0.80;;;12.40;99.90;;;;;;7386000;19;20469;-73
2023/03/20 07:44:43;;;;;;;0.95;0.75;;;12.60;99.90;;;;;;7389693;19;20625;-72
2023/03/20 07:47:08;;;;;;;0.90;0.70;;;12.70;99.90;;;;;;7385725;19;20131;-74
2023/03/20 07:49:34;;;;;;;0.98;0.88;;;12.70;99.90;;;;;;7385781;19;20149;-72
2023/03/20 07:52:02;;;;;;;2.13;1.48;;;13.00;99.90;;;;;;7384259;19;20176;-73
2023/03/20 07:54:33;;;;;;;1.38;1.08;;;12.90;99.90;;;;;;7384575;19;20146;-73
2023/03/20 07:57:00;;;;;;;1.75;1.42;;;12.90;99.90;;;;;;7383719;19;20154;-75
2023/03/20 07:59:27;;;;;;;1.57;1.00;;;12.90;99.90;;;;;;7383807;19;20151;-74
2023/03/20 08:01:52;;;;;;;2.13;1.30;;;12.90;99.90;;;;;;7383362;19;20146;-73
2023/03/20 08:04:21;;;;;;;1.50;1.00;;;13.00;99.90;;;;;;7379439;19;20407;-72
2023/03/20 08:06:53;;;;;;;1.20;0.88;;;13.20;99.90;;;;;;7381814;19;20190;-72
2023/03/20 08:09:18;;;;;;;1.02;0.93;;;13.30;99.90;;;;;;7384260;19;20139;-72
2023/03/20 08:11:45;;;;;;;5.10;1.10;;;13.40;99.90;;;;;;7381693;19;20146;-72
2023/03/20 08:14:11;;;;;;;1.30;0.80;;;13.50;99.90;;;;;;7385823;19;20186;-71
2023/03/20 08:16:37;;;;;;;1.13;0.98;;;13.70;99.90;;;;;;7387422;19;20516;-72
2023/03/20 08:19:04;;;;;;;1.27;0.80;;;13.80;99.90;;;;;;7389847;19;20135;-72
2023/03/20 08:21:31;;;;;;;1.92;0.93;;;13.70;99.90;;;;;;7391754;19;20173;-72
2023/03/20 08:23:57;;;;;;;1.20;0.83;;;13.50;99.90;;;;;;7392142;19;20578;-72
2023/03/20 08:26:24;;;;;;;1.48;1.10;;;13.40;99.90;;;;;;7391013;19;20228;-73
2023/03/20 08:28:50;;;;;;;3.40;0.85;;;13.40;99.90;;;;;;7391760;19;20150;-72
2023/03/20 08:31:18;;;;;;;1.20;0.77;;;13.40;99.90;;;;;;7393583;19;20137;-72
2023/03/20 08:33:45;;;;;;;1.23;0.90;;;13.40;99.90;;;;;;7391228;19;20551;-72
2023/03/20 08:36:12;;;;;;;1.57;0.83;;;13.40;99.90;;;;;;7388535;19;20526;-73
2023/03/20 08:38:38;;;;;;;3.15;1.45;;;13.50;99.90;;;;;;7390434;19;20141;-73
2023/03/20 08:41:05;;;;;;;6.28;3.25;;;13.60;99.90;;;;;;7388308;19;20134;-73
2023/03/20 08:43:31;;;;;;;1.52;1.40;;;13.60;99.90;;;;;;7390556;19;20706;-73
2023/03/20 08:45:57;;;;;;;1.13;0.95;;;13.70;99.90;;;;;;7390256;19;20147;-72
2023/03/20 08:48:23;;;;;;;3.13;2.00;;;13.80;99.90;;;;;;7386080;19;20395;-72
2023/03/20 08:50:48;;;;;;;1.30;0.82;;;13.90;99.90;;;;;;7390922;19;20194;-72
2023/03/20 08:53:14;;;;;;;3.60;0.88;;;13.80;99.90;;;;;;7390387;19;20497;-72
2023/03/20 08:55:40;;;;;;;2.58;1.10;;;13.70;99.90;;;;;;7391536;19;20133;-71
2023/03/20 08:58:06;;;;;;;1.23;0.80;;;13.70;99.90;;;;;;7389884;19;20127;-72
2023/03/20 09:00:31;;;;;;;1.73;1.20;;;13.80;99.90;;;;;;7391797;19;20137;-72
2023/03/20 09:02:57;;;;;;;1.63;0.93;;;13.90;99.90;;;;;;7392540;19;20141;-73
2023/03/20 09:05:23;;;;;;;2.13;1.60;;;13.90;99.90;;;;;;7387779;19;20178;-72
2023/03/20 09:07:50;;;;;;;2.47;1.50;;;14.00;99.90;;;;;;7391773;19;20154;-72
2023/03/20 09:10:16;;;;;;;4.03;3.30;;;14.00;99.90;;;;;;7390551;19;20174;-73
2023/03/20 09:12:42;;;;;;;1.38;1.15;;;13.90;99.90;;;;;;7392897;19;20139;-71
2023/03/20 09:15:08;;;;;;;1.52;1.00;;;14.10;99.90;;;;;;7388465;19;20194;-72
2023/03/20 09:17:34;;;;;;;0.80;0.80;;;14.20;99.90;;;;;;7391073;19;20154;-72
2023/03/20 09:19:59;;;;;;;2.05;1.27;;;14.30;99.90;;;;;;7389006;19;20150;-71
2023/03/20 09:22:25;;;;;;;6.25;0.98;;;14.20;99.90;;;;;;7388150;19;21048;-72
2023/03/20 09:24:51;;;;;;;1.10;0.90;;;14.20;99.90;;;;;;7390827;19;20146;-71
2023/03/20 09:27:17;;;;;;;1.20;0.75;;;14.30;99.90;;;;;;7389657;19;20141;-72
2023/03/20 09:29:43;;;;;;;1.42;0.98;;;14.30;99.90;;;;;;7389243;19;20572;-73
2023/03/20 09:32:13;;;;;;;2.45;1.95;;;14.20;99.90;;;;;;7386671;19;20126;-73
2023/03/20 09:34:38;;;;;;;2.30;1.20;;;14.30;99.90;;;;;;7387613;19;20154;-72
2023/03/20 09:37:05;;;;;;;1.42;1.00;;;14.40;99.90;;;;;;7389227;19;20598;-73
2023/03/20 09:39:31;;;;;;;1.88;1.02;;;14.60;99.90;;;;;;7391617;19;20138;-71
2023/03/20 09:42:07;;;;;;;4.43;1.30;;;14.60;99.90;;;;;;7390133;19;20146;-72
2023/03/20 09:44:50;;;;;;;2.92;1.70;;;14.70;99.90;;;;;;7390572;19;20138;-71
2023/03/20 09:47:28;;;;;;;2.83;1.90;;;14.80;99.90;;;;;;7389473;19;20399;-72
2023/03/20 09:50:27;;;;;;;1.67;1.30;;;14.80;99.90;;;;;;7388765;19;20142;-72
2023/03/20 09:53:08;;;;;;;2.00;1.00;;;14.70;99.90;;;;;;7384969;19;20210;-74
2023/03/20 09:55:36;;;;;;;0.95;0.85;;;14.80;99.90;;;;;;7379702;19;20494;-72
2023/03/20 09:58:25;;;;;;;0.90;0.70;;;14.80;99.90;;;;;;7386713;19;20210;-73
2023/03/20 10:00:53;;;;;;;1.80;1.20;;;14.70;99.90;;;;;;7389704;19;20138;-73
2023/03/20 10:03:51;;;;;;;1.70;1.17;;;14.60;99.90;;;;;;7388521;19;20146;-72
2023/03/20 10:06:17;;;;;;;3.65;1.52;;;14.60;99.90;;;;;;7391392;19;20181;-72
2023/03/20 10:08:45;;;;;;;2.92;1.58;;;14.50;99.90;;;;;;7385909;19;20161;-72
2023/03/20 10:11:29;;;;;;;2.42;1.08;;;14.50;99.90;;;;;;7387406;19;20126;-71
2023/03/20 10:14:20;;;;;;;2.33;1.50;;;14.70;99.90;;;;;;7386992;19;20135;-71
2023/03/20 10:17:08;;;;;;;2.58;1.58;;;14.80;99.90;;;;;;7387128;19;20153;-72
2023/03/20 10:20:21;;;;;;;1.17;0.93;;;14.80;99.90;;;;;;7387288;19;20131;-73
2023/03/20 10:22:52;;;;;;;1.70;1.10;;;14.90;99.90;;;;;;7384093;19;20139;-71
2023/03/20 10:25:25;;;;;;;2.70;1.38;;;14.90;99.90;;;;;;7388499;19;20242;-72
2023/03/20 10:28:00;;;;;;;1.48;0.90;;;14.80;99.90;;;;;;7390313;19;20137;-72
2023/03/20 10:30:49;;;;;;;1.92;1.30;;;14.70;99.90;;;;;;7387131;19;20146;-73
2023/03/20 10:33:33;;;;;;;1.60;1.05;;;14.60;99.90;;;;;;7387358;19;20138;-71
2023/03/20 10:36:58;;;;;;;2.08;1.30;;;14.40;99.90;;;;;;7388177;19;20138;-71
2023/03/20 10:39:34;;;;;;;2.30;1.10;;;14.50;99.90;;;;;;7383798;19;20134;-72
2023/03/20 10:42:03;;;;;;;1.27;0.88;;;14.30;99.90;;;;;;7385851;19;20246;-72
2023/03/20 10:44:41;;;;;;;1.45;1.00;;;14.20;99.90;;;;;;7389450;19;20143;-73
2023/03/20 10:47:11;;;;;;;1.15;0.90;;;14.10;99.90;;;;;;7387139;19;20164;-72
2023/03/20 10:49:45;;;;;;;1.73;0.90;;;14.10;99.90;;;;;;7387577;19;20706;-73
2023/03/20 10:52:25;;;;;;;3.58;2.28;;;14.00;99.90;;;;;;7390520;19;20131;-71
2023/03/20 10:55:00;;;;;;;3.25;2.00;;;14.00;99.90;;;;;;7386390;19;20238;-72
2023/03/20 10:57:30;;;;;;;4.35;2.67;;;14.00;99.90;;;;;;7387803;19;20126;-72
2023/03/20 10:59:57;;;;;;;3.67;2.60;;;13.90;99.90;;;;;;7387727;19;20142;-73
2023/03/20 11:02:28;;;;;;;3.97;1.58;;;13.80;99.90;;;;;;7386805;19;20138;-72
2023/03/20 11:04:54;;;;;;;4.03;1.73;;;13.70;99.90;;;;;;7386812;19;20150;-73
2023/03/20 11:07:33;;;;;;;2.67;1.65;;;13.80;99.90;;;;;;7387221;19;20238;-72
2023/03/20 11:10:04;;;;;;;2.30;1.52;;;13.90;99.90;;;;;;7387568;19;20131;-73
2023/03/20 11:12:35;;;;;;;1.98;1.60;;;13.90;99.90;;;;;;7386013;19;20151;-71
2023/03/20 11:15:14;;;;;;;3.03;1.63;;;14.00;99.90;;;;;;7381774;19;20143;-71
2023/03/20 11:17:40;;;;;;;4.68;1.98;;;14.00;99.90;;;;;;7384121;19;20162;-72
2023/03/20 11:20:07;;;;;;;3.55;2.08;;;14.30;99.90;;;;;;7389294;19;20614;-72
2023/03/20 11:22:34;;;;;;;2.50;1.98;;;14.10;99.90;;;;;;7387799;19;20165;-71
2023/03/20 11:25:01;;;;;;;3.30;2.22;;;14.10;99.90;;;;;;7384472;19;20511;-72
2023/03/20 11:27:29;;;;;;;13.93;6.38;;;14.10;99.90;;;;;;7385573;19;20138;-72
2023/03/20 11:29:57;;;;;;;5.80;3.63;;;14.10;99.90;;;;;;7386953;19;20134;-72
2023/03/20 11:32:34;;;;;;;8.10;4.20;;;14.00;99.90;;;;;;7386598;19;20137;-73
2023/03/20 11:35:17;;;;;;;5.10;3.70;;;14.00;99.90;;;;;;7385188;19;20138;-73
2023/03/20 11:37:46;;;;;;;4.40;3.35;;;14.00;99.90;;;;;;7388118;19;20134;-73
2023/03/20 11:40:11;;;;;;;3.33;2.70;;;14.00;99.90;;;;;;7385636;19;20194;-73
2023/03/20 11:42:37;;;;;;;3.08;2.33;;;14.10;99.90;;;;;;7389520;19;20160;-72
2023/03/20 11:45:13;;;;;;;4.25;3.28;;;14.10;99.90;;;;;;7385479;19;20134;-74
2023/03/20 11:47:40;;;;;;;4.55;3.25;;;14.10;99.90;;;;;;7384484;19;20152;-73
2023/03/20 11:50:24;;;;;;;5.25;2.97;;;14.10;99.90;;;;;;7386121;19;20729;-73
2023/03/20 11:52:50;;;;;;;3.67;3.13;;;14.20;99.90;;;;;;7386788;19;20387;-73
2023/03/20 11:55:44;;;;;;;4.38;3.00;;;14.20;99.90;;;;;;7395677;19;20126;-73
2023/03/20 11:58:15;;;;;;;4.22;3.20;;;14.00;99.90;;;;;;7398190;19;20173;-73
2023/03/20 12:00:42;;;;;;;4.22;2.65;;;14.10;99.90;;;;;;7394286;19;20619;-72
2023/03/20 12:03:44;;;;;;;4.22;2.50;;;14.00;99.90;;;;;;7401124;19;20134;-70
2023/03/20 12:06:20;;;;;;;4.75;3.38;;;14.10;99.90;;;;;;7397355;19;20594;-72
2023/03/20 12:09:23;;;;;;;4.75;3.22;;;14.20;99.90;;;;;;7397635;19;20452;-74
2023/03/20 12:12:02;;;;;;;9.73;3.70;;;14.40;99.90;;;;;;7397729;19;20483;-74
2023/03/20 12:14:55;;;;;;;4.72;3.63;;;14.40;99.90;;;;;;7400800;19;20174;-72
2023/03/20 12:17:51;;;;;;;4.65;3.17;;;14.70;99.90;;;;;;7390908;19;20447;-71
2023/03/20 12:20:26;;;;;;;4.82;3.60;;;14.80;99.90;;;;;;7399201;19;20131;-71
2023/03/20 12:23:22;;;;;;;4.95;3.63;;;14.80;99.90;;;;;;7401042;19;20158;-71
2023/03/20 12:26:01;;;;;;;6.57;3.03;;;14.80;99.90;;;;;;7397845;19;20146;-72
2023/03/20 12:28:30;;;;;;;4.15;3.05;;;15.00;99.90;;;;;;7397570;19;20154;-71
2023/03/20 12:31:21;;;;;;;4.53;3.17;;;14.90;99.90;;;;;;7399491;19;20151;-73
2023/03/20 12:34:32;;;;;;;4.35;3.10;;;14.90;99.90;;;;;;7399467;19;20142;-69
2023/03/20 12:36:58;;;;;;;8.27;4.28;;;14.80;99.90;;;;;;7394774;19;20548;-71
2023/03/20 12:39:40;;;;;;;3.72;2.80;;;14.80;99.90;;;;;;7397026;19;20147;-71
2023/03/20 12:42:21;;;;;;;4.40;3.00;;;14.90;99.90;;;;;;7396462;19;20171;-73
2023/03/20 12:44:46;;;;;;;3.92;2.60;;;14.90;99.90;;;;;;7399600;19;20135;-71
2023/03/20 12:47:35;;;;;;;4.05;2.70;;;14.90;99.90;;;;;;7398340;19;20162;-70
2023/03/20 12:50:35;;;;;;;3.88;3.00;;;14.80;99.90;;;;;;7399194;19;20235;-71
2023/03/20 12:53:10;;;;;;;3.40;2.22;;;14.30;99.90;;;;;;7398984;19;20240;-71
2023/03/20 12:55:54;;;;;;;7.55;4.68;;;14.10;99.90;;;;;;7395765;19;20141;-73
2023/03/20 12:58:45;;;;;;;6.55;3.83;;;14.40;99.90;;;;;;7397704;19;20134;-71
2023/03/20 13:01:13;;;;;;;4.03;2.70;;;14.50;99.90;;;;;;7398111;19;20152;-72
2023/03/20 13:04:05;;;;;;;16.55;8.82;;;14.50;99.90;;;;;;7395100;19;20169;-70
2023/03/20 13:06:54;;;;;;;6.28;4.30;;;14.60;99.90;;;;;;7389987;19;20225;-70
2023/03/20 13:09:47;;;;;;;4.00;2.72;;;14.70;99.90;;;;;;7389324;19;20135;-70
2023/03/20 13:12:36;;;;;;;4.43;2.70;;;14.70;99.90;;;;;;7389569;19;20203;-71